Terminal Aerodrome Forecast
Issued by NWS

Home | Current Version | Previous Version | Text Only | Print | Product List | Glossary On
Versions: 1 2 3 4 5 6 7 8 9 10 11 12 13 14 15 16 17 18 19 20 21 22 23 24 25 26 27 28
000
FTUS41 KOKX 250500
TAFTEB
TAF
KTEB 250531Z 2506/2606 VRB04KT P6SM SKC
     FM251500 15007KT P6SM SCT250
     FM251900 17011KT P6SM SCT120 BKN250
     FM260000 16010KT 6SM -RA SCT020 OVC035
     FM260400 12008KT 5SM -RA BR OVC020=

USA.gov is the U.S. government's official web portal to all federal, state and local government web resources and services.